sensor_id;sensor_type;location;lat;lon;timestamp;P1;durP1;ratioP1;P2;durP2;ratioP2
63276;SDS011;49403;51.046;13.780;2024-03-06T00:00:25;39.00;;;20.75;;
63276;SDS011;49403;51.046;13.780;2024-03-06T00:00:56;34.40;;;20.33;;
63276;SDS011;49403;51.046;13.780;2024-03-06T00:01:27;35.10;;;20.77;;
63276;SDS011;49403;51.046;13.780;2024-03-06T00:01:58;36.88;;;20.40;;
63276;SDS011;49403;51.046;13.780;2024-03-06T00:02:29;37.60;;;20.20;;
63276;SDS011;49403;51.046;13.780;2024-03-06T00:03:00;34.65;;;19.90;;
63276;SDS011;49403;51.046;13.780;2024-03-06T00:03:31;33.25;;;19.98;;
63276;SDS011;49403;51.046;13.780;2024-03-06T00:04:02;39.67;;;20.95;;
63276;SDS011;49403;51.046;13.780;2024-03-06T00:04:34;41.55;;;20.92;;
63276;SDS011;49403;51.046;13.780;2024-03-06T00:05:05;38.10;;;20.58;;
63276;SDS011;49403;51.046;13.780;2024-03-06T00:05:37;36.30;;;20.67;;
63276;SDS011;49403;51.046;13.780;2024-03-06T00:06:08;36.78;;;19.13;;
63276;SDS011;49403;51.046;13.780;2024-03-06T00:06:39;36.38;;;20.33;;
63276;SDS011;49403;51.046;13.780;2024-03-06T00:07:10;38.45;;;20.85;;
63276;SDS011;49403;51.046;13.780;2024-03-06T00:07:41;36.42;;;20.30;;
63276;SDS011;49403;51.046;13.780;2024-03-06T00:08:12;33.08;;;19.60;;
63276;SDS011;49403;51.046;13.780;2024-03-06T00:08:43;37.22;;;20.17;;
63276;SDS011;49403;51.046;13.780;2024-03-06T00:09:13;33.55;;;20.50;;
63276;SDS011;49403;51.046;13.780;2024-03-06T00:09:44;34.28;;;19.70;;
63276;SDS011;49403;51.046;13.780;2024-03-06T00:10:15;39.00;;;20.67;;
63276;SDS011;49403;51.046;13.780;2024-03-06T00:10:46;42.05;;;21.33;;
63276;SDS011;49403;51.046;13.780;2024-03-06T00:11:17;38.25;;;20.33;;
63276;SDS011;49403;51.046;13.780;2024-03-06T00:11:48;33.53;;;20.20;;
63276;SDS011;49403;51.046;13.780;2024-03-06T00:12:21;37.22;;;20.65;;
63276;SDS011;49403;51.046;13.780;2024-03-06T00:12:51;33.80;;;19.80;;
63276;SDS011;49403;51.046;13.780;2024-03-06T00:13:22;36.83;;;21.10;;
63276;SDS011;49403;51.046;13.780;2024-03-06T00:13:53;34.88;;;19.90;;
63276;SDS011;49403;51.046;13.780;2024-03-06T00:14:24;34.40;;;20.23;;
63276;SDS011;49403;51.046;13.780;2024-03-06T00:14:55;33.92;;;20.63;;
63276;SDS011;49403;51.046;13.780;2024-03-06T00:15:26;39.50;;;21.33;;
63276;SDS011;49403;51.046;13.780;2024-03-06T00:15:57;38.88;;;20.77;;
63276;SDS011;49403;51.046;13.780;2024-03-06T00:16:28;37.03;;;20.80;;
63276;SDS011;49403;51.046;13.780;2024-03-06T00:16:59;35.22;;;20.27;;
63276;SDS011;49403;51.046;13.780;2024-03-06T00:17:30;36.92;;;21.10;;
63276;SDS011;49403;51.046;13.780;2024-03-06T00:18:01;39.28;;;20.55;;
63276;SDS011;49403;51.046;13.780;2024-03-06T00:18:33;35.90;;;20.75;;
63276;SDS011;49403;51.046;13.780;2024-03-06T00:19:04;35.80;;;20.45;;
63276;SDS011;49403;51.046;13.780;2024-03-06T00:19:35;41.47;;;20.48;;
63276;SDS011;49403;51.046;13.780;2024-03-06T00:20:06;40.20;;;20.85;;
63276;SDS011;49403;51.046;13.780;2024-03-06T00:20:40;39.05;;;20.15;;
63276;SDS011;49403;51.046;13.780;2024-03-06T00:21:12;33.67;;;20.92;;
63276;SDS011;49403;51.046;13.780;2024-03-06T00:21:43;37.22;;;20.77;;
63276;SDS011;49403;51.046;13.780;2024-03-06T00:22:14;36.28;;;19.58;;
63276;SDS011;49403;51.046;13.780;2024-03-06T00:22:45;37.33;;;20.17;;
63276;SDS011;49403;51.046;13.780;2024-03-06T00:23:16;40.72;;;21.13;;
63276;SDS011;49403;51.046;13.780;2024-03-06T00:23:47;36.88;;;20.45;;
63276;SDS011;49403;51.046;13.780;2024-03-06T00:24:18;38.08;;;20.50;;
63276;SDS011;49403;51.046;13.780;2024-03-06T00:24:48;39.85;;;20.95;;
63276;SDS011;49403;51.046;13.780;2024-03-06T00:25:19;38.38;;;20.95;;
63276;SDS011;49403;51.046;13.780;2024-03-06T00:25:50;40.17;;;20.50;;
63276;SDS011;49403;51.046;13.780;2024-03-06T00:26:21;37.42;;;20.60;;
63276;SDS011;49403;51.046;13.780;2024-03-06T00:26:52;35.40;;;19.85;;
63276;SDS011;49403;51.046;13.780;2024-03-06T00:27:23;35.25;;;20.02;;
63276;SDS011;49403;51.046;13.780;2024-03-06T00:27:54;40.42;;;20.73;;
63276;SDS011;49403;51.046;13.780;2024-03-06T00:28:25;33.72;;;19.98;;
63276;SDS011;49403;51.046;13.780;2024-03-06T00:28:56;38.35;;;20.55;;
63276;SDS011;49403;51.046;13.780;2024-03-06T00:29:27;36.65;;;20.98;;
63276;SDS011;49403;51.046;13.780;2024-03-06T00:29:58;37.97;;;20.23;;
63276;SDS011;49403;51.046;13.780;2024-03-06T00:30:29;37.75;;;19.95;;
63276;SDS011;49403;51.046;13.780;2024-03-06T00:31:00;38.72;;;20.38;;
63276;SDS011;49403;51.046;13.780;2024-03-06T00:31:30;36.10;;;20.13;;
63276;SDS011;49403;51.046;13.780;2024-03-06T00:32:02;37.33;;;20.38;;
63276;SDS011;49403;51.046;13.780;2024-03-06T00:32:33;34.33;;;20.17;;
63276;SDS011;49403;51.046;13.780;2024-03-06T00:33:04;38.25;;;19.85;;
63276;SDS011;49403;51.046;13.780;2024-03-06T00:33:35;34.85;;;19.90;;
63276;SDS011;49403;51.046;13.780;2024-03-06T00:34:06;36.17;;;20.08;;
63276;SDS011;49403;51.046;13.780;2024-03-06T00:34:37;33.75;;;19.98;;
63276;SDS011;49403;51.046;13.780;2024-03-06T00:35:08;38.53;;;20.20;;
63276;SDS011;49403;51.046;13.780;2024-03-06T00:35:39;34.75;;;20.13;;
63276;SDS011;49403;51.046;13.780;2024-03-06T00:36:10;36.47;;;20.75;;
63276;SDS011;49403;51.046;13.780;2024-03-06T00:36:42;40.15;;;22.00;;
63276;SDS011;49403;51.046;13.780;2024-03-06T00:37:16;35.17;;;20.02;;
63276;SDS011;49403;51.046;13.780;2024-03-06T00:37:47;34.97;;;20.48;;
63276;SDS011;49403;51.046;13.780;2024-03-06T00:38:17;33.70;;;20.17;;
63276;SDS011;49403;51.046;13.780;2024-03-06T00:38:48;37.45;;;20.05;;
63276;SDS011;49403;51.046;13.780;2024-03-06T00:39:19;33.47;;;19.65;;
63276;SDS011;49403;51.046;13.780;2024-03-06T00:39:50;35.60;;;20.38;;
63276;SDS011;49403;51.046;13.780;2024-03-06T00:40:22;36.63;;;20.73;;
63276;SDS011;49403;51.046;13.780;2024-03-06T00:40:53;36.83;;;20.60;;
63276;SDS011;49403;51.046;13.780;2024-03-06T00:41:24;32.03;;;19.50;;
63276;SDS011;49403;51.046;13.780;2024-03-06T00:41:55;36.33;;;20.88;;
63276;SDS011;49403;51.046;13.780;2024-03-06T00:42:26;35.88;;;20.67;;
63276;SDS011;49403;51.046;13.780;2024-03-06T00:42:57;36.80;;;20.98;;
63276;SDS011;49403;51.046;13.780;2024-03-06T00:43:28;38.58;;;20.05;;
63276;SDS011;49403;51.046;13.780;2024-03-06T00:43:59;38.60;;;20.73;;
63276;SDS011;49403;51.046;13.780;2024-03-06T00:44:30;35.00;;;20.65;;
63276;SDS011;49403;51.046;13.780;2024-03-06T00:45:00;39.17;;;20.17;;
63276;SDS011;49403;51.046;13.780;2024-03-06T00:45:32;34.33;;;19.75;;
63276;SDS011;49403;51.046;13.780;2024-03-06T00:46:03;37.88;;;20.75;;
63276;SDS011;49403;51.046;13.780;2024-03-06T00:46:34;36.15;;;20.33;;
63276;SDS011;49403;51.046;13.780;2024-03-06T00:47:05;36.55;;;20.35;;
63276;SDS011;49403;51.046;13.780;2024-03-06T00:47:36;39.35;;;20.55;;
63276;SDS011;49403;51.046;13.780;2024-03-06T00:48:07;37.50;;;20.65;;
63276;SDS011;49403;51.046;13.780;2024-03-06T00:48:38;33.42;;;20.15;;
63276;SDS011;49403;51.046;13.780;2024-03-06T00:49:09;30.17;;;19.55;;
63276;SDS011;49403;51.046;13.780;2024-03-06T00:49:40;40.63;;;20.13;;
63276;SDS011;49403;51.046;13.780;2024-03-06T00:50:12;34.78;;;19.95;;
63276;SDS011;49403;51.046;13.780;2024-03-06T00:50:43;40.05;;;20.13;;
63276;SDS011;49403;51.046;13.780;2024-03-06T00:51:13;33.35;;;19.80;;
63276;SDS011;49403;51.046;13.780;2024-03-06T00:51:44;35.35;;;20.45;;
63276;SDS011;49403;51.046;13.780;2024-03-06T00:52:15;35.30;;;19.92;;
63276;SDS011;49403;51.046;13.780;2024-03-06T00:52:46;36.38;;;19.95;;
63276;SDS011;49403;51.046;13.780;2024-03-06T00:53:17;32.35;;;20.48;;
63276;SDS011;49403;51.046;13.780;2024-03-06T00:53:48;36.08;;;20.40;;
63276;SDS011;49403;51.046;13.780;2024-03-06T00:54:18;40.65;;;21.00;;
63276;SDS011;49403;51.046;13.780;2024-03-06T00:54:49;32.42;;;19.98;;
63276;SDS011;49403;51.046;13.780;2024-03-06T00:55:20;35.53;;;20.45;;
63276;SDS011;49403;51.046;13.780;2024-03-06T00:55:51;36.05;;;20.48;;
63276;SDS011;49403;51.046;13.780;2024-03-06T00:56:22;35.95;;;20.55;;
63276;SDS011;49403;51.046;13.780;2024-03-06T00:56:53;36.55;;;20.10;;
63276;SDS011;49403;51.046;13.780;2024-03-06T00:57:24;37.80;;;20.20;;
63276;SDS011;49403;51.046;13.780;2024-03-06T00:57:55;38.47;;;21.13;;
63276;SDS011;49403;51.046;13.780;2024-03-06T00:58:26;36.50;;;19.85;;
63276;SDS011;49403;51.046;13.780;2024-03-06T00:58:57;38.85;;;21.60;;
63276;SDS011;49403;51.046;13.780;2024-03-06T00:59:28;37.13;;;21.35;;
63276;SDS011;49403;51.046;13.780;2024-03-06T00:59:59;38.08;;;20.45;;
63276;SDS011;49403;51.046;13.780;2024-03-06T01:00:30;39.42;;;20.70;;
63276;SDS011;49403;51.046;13.780;2024-03-06T01:01:01;34.42;;;21.25;;
63276;SDS011;49403;51.046;13.780;2024-03-06T01:01:32;36.08;;;20.67;;
63276;SDS011;49403;51.046;13.780;2024-03-06T01:02:02;36.88;;;20.90;;
63276;SDS011;49403;51.046;13.780;2024-03-06T01:02:33;36.38;;;20.80;;
63276;SDS011;49403;51.046;13.780;2024-03-06T01:03:04;36.97;;;20.67;;
63276;SDS011;49403;51.046;13.780;2024-03-06T01:03:37;36.70;;;20.75;;
63276;SDS011;49403;51.046;13.780;2024-03-06T01:04:09;39.15;;;20.95;;
63276;SDS011;49403;51.046;13.780;2024-03-06T01:04:40;36.25;;;20.90;;
63276;SDS011;49403;51.046;13.780;2024-03-06T01:05:11;39.85;;;20.92;;
63276;SDS011;49403;51.046;13.780;2024-03-06T01:05:42;36.28;;;20.80;;
63276;SDS011;49403;51.046;13.780;2024-03-06T01:06:12;34.35;;;20.58;;
63276;SDS011;49403;51.046;13.780;2024-03-06T01:06:43;40.20;;;21.50;;
63276;SDS011;49403;51.046;13.780;2024-03-06T01:07:16;35.78;;;21.23;;
63276;SDS011;49403;51.046;13.780;2024-03-06T01:07:47;36.58;;;21.25;;
63276;SDS011;49403;51.046;13.780;2024-03-06T01:08:18;38.22;;;20.60;;
63276;SDS011;49403;51.046;13.780;2024-03-06T01:08:49;38.95;;;21.00;;
63276;SDS011;49403;51.046;13.780;2024-03-06T01:09:20;40.05;;;21.10;;
63276;SDS011;49403;51.046;13.780;2024-03-06T01:09:50;39.15;;;21.50;;
63276;SDS011;49403;51.046;13.780;2024-03-06T01:10:22;36.53;;;20.88;;
63276;SDS011;49403;51.046;13.780;2024-03-06T01:10:54;40.88;;;20.75;;
63276;SDS011;49403;51.046;13.780;2024-03-06T01:11:25;40.40;;;20.88;;
63276;SDS011;49403;51.046;13.780;2024-03-06T01:11:56;37.40;;;20.63;;
63276;SDS011;49403;51.046;13.780;2024-03-06T01:12:27;34.60;;;19.70;;
63276;SDS011;49403;51.046;13.780;2024-03-06T01:12:58;38.53;;;22.08;;
63276;SDS011;49403;51.046;13.780;2024-03-06T01:13:29;37.67;;;21.25;;
63276;SDS011;49403;51.046;13.780;2024-03-06T01:14:01;38.22;;;20.95;;
63276;SDS011;49403;51.046;13.780;2024-03-06T01:14:32;36.63;;;20.95;;
63276;SDS011;49403;51.046;13.780;2024-03-06T01:15:03;37.17;;;20.77;;
63276;SDS011;49403;51.046;13.780;2024-03-06T01:15:34;38.55;;;21.13;;
63276;SDS011;49403;51.046;13.780;2024-03-06T01:16:05;37.97;;;20.95;;
63276;SDS011;49403;51.046;13.780;2024-03-06T01:16:36;40.45;;;20.98;;
63276;SDS011;49403;51.046;13.780;2024-03-06T01:17:07;36.63;;;20.15;;
63276;SDS011;49403;51.046;13.780;2024-03-06T01:17:38;37.92;;;21.02;;
63276;SDS011;49403;51.046;13.780;2024-03-06T01:18:09;37.83;;;21.33;;
63276;SDS011;49403;51.046;13.780;2024-03-06T01:18:40;38.90;;;21.45;;
63276;SDS011;49403;51.046;13.780;2024-03-06T01:19:11;33.90;;;20.60;;
63276;SDS011;49403;51.046;13.780;2024-03-06T01:19:41;37.42;;;21.10;;
63276;SDS011;49403;51.046;13.780;2024-03-06T01:20:15;38.97;;;21.50;;
63276;SDS011;49403;51.046;13.780;2024-03-06T01:20:46;38.30;;;20.83;;
63276;SDS011;49403;51.046;13.780;2024-03-06T01:21:17;40.38;;;21.48;;
63276;SDS011;49403;51.046;13.780;2024-03-06T01:21:48;41.28;;;21.45;;
63276;SDS011;49403;51.046;13.780;2024-03-06T01:22:19;39.75;;;20.50;;
63276;SDS011;49403;51.046;13.780;2024-03-06T01:22:49;38.70;;;21.13;;
63276;SDS011;49403;51.046;13.780;2024-03-06T01:23:20;36.47;;;20.60;;
63276;SDS011;49403;51.046;13.780;2024-03-06T01:23:51;38.97;;;20.77;;
63276;SDS011;49403;51.046;13.780;2024-03-06T01:24:22;40.08;;;20.80;;
63276;SDS011;49403;51.046;13.780;2024-03-06T01:24:53;40.20;;;21.77;;
63276;SDS011;49403;51.046;13.780;2024-03-06T01:25:23;38.45;;;21.33;;
63276;SDS011;49403;51.046;13.780;2024-03-06T01:25:54;40.50;;;21.20;;
63276;SDS011;49403;51.046;13.780;2024-03-06T01:26:25;38.85;;;21.67;;
63276;SDS011;49403;51.046;13.780;2024-03-06T01:26:56;39.83;;;21.95;;
63276;SDS011;49403;51.046;13.780;2024-03-06T01:27:27;44.65;;;22.75;;
63276;SDS011;49403;51.046;13.780;2024-03-06T01:27:58;34.25;;;19.75;;
63276;SDS011;49403;51.046;13.780;2024-03-06T01:28:29;37.72;;;21.98;;
63276;SDS011;49403;51.046;13.780;2024-03-06T01:29:00;41.78;;;21.85;;
63276;SDS011;49403;51.046;13.780;2024-03-06T01:29:30;35.90;;;21.70;;
63276;SDS011;49403;51.046;13.780;2024-03-06T01:30:01;38.70;;;22.25;;
63276;SDS011;49403;51.046;13.780;2024-03-06T01:30:33;37.50;;;21.10;;
63276;SDS011;49403;51.046;13.780;2024-03-06T01:31:04;36.00;;;21.85;;
63276;SDS011;49403;51.046;13.780;2024-03-06T01:31:35;40.35;;;22.15;;
63276;SDS011;49403;51.046;13.780;2024-03-06T01:32:05;35.97;;;21.38;;
63276;SDS011;49403;51.046;13.780;2024-03-06T01:32:36;38.45;;;21.65;;
63276;SDS011;49403;51.046;13.780;2024-03-06T01:33:07;39.08;;;21.52;;
63276;SDS011;49403;51.046;13.780;2024-03-06T01:33:38;39.75;;;21.58;;
63276;SDS011;49403;51.046;13.780;2024-03-06T01:34:09;42.10;;;21.73;;
63276;SDS011;49403;51.046;13.780;2024-03-06T01:34:40;41.38;;;21.80;;
63276;SDS011;49403;51.046;13.780;2024-03-06T01:35:11;37.38;;;21.25;;
63276;SDS011;49403;51.046;13.780;2024-03-06T01:35:42;42.00;;;22.10;;
63276;SDS011;49403;51.046;13.780;2024-03-06T01:36:13;37.55;;;21.60;;
63276;SDS011;49403;51.046;13.780;2024-03-06T01:36:44;39.38;;;21.13;;
63276;SDS011;49403;51.046;13.780;2024-03-06T01:37:15;37.45;;;21.05;;
63276;SDS011;49403;51.046;13.780;2024-03-06T01:37:46;39.50;;;21.55;;
63276;SDS011;49403;51.046;13.780;2024-03-06T01:38:17;43.80;;;22.42;;
63276;SDS011;49403;51.046;13.780;2024-03-06T01:38:48;39.08;;;21.85;;
63276;SDS011;49403;51.046;13.780;2024-03-06T01:39:19;39.75;;;21.92;;
63276;SDS011;49403;51.046;13.780;2024-03-06T01:39:50;43.70;;;21.42;;
63276;SDS011;49403;51.046;13.780;2024-03-06T01:40:21;41.03;;;21.70;;
63276;SDS011;49403;51.046;13.780;2024-03-06T01:40:51;35.78;;;21.75;;
63276;SDS011;49403;51.046;13.780;2024-03-06T01:41:22;37.45;;;20.67;;
63276;SDS011;49403;51.046;13.780;2024-03-06T01:41:53;40.58;;;21.27;;
63276;SDS011;49403;51.046;13.780;2024-03-06T01:42:24;41.03;;;21.52;;
63276;SDS011;49403;51.046;13.780;2024-03-06T01:42:55;36.53;;;21.13;;
63276;SDS011;49403;51.046;13.780;2024-03-06T01:43:26;35.53;;;21.13;;
63276;SDS011;49403;51.046;13.780;2024-03-06T01:43:57;40.47;;;21.73;;
63276;SDS011;49403;51.046;13.780;2024-03-06T01:44:28;38.13;;;21.33;;
63276;SDS011;49403;51.046;13.780;2024-03-06T01:45:00;41.08;;;22.00;;
63276;SDS011;49403;51.046;13.780;2024-03-06T01:45:32;38.17;;;21.33;;
63276;SDS011;49403;51.046;13.780;2024-03-06T01:46:03;37.80;;;21.83;;
63276;SDS011;49403;51.046;13.780;2024-03-06T01:46:34;37.30;;;21.65;;
63276;SDS011;49403;51.046;13.780;2024-03-06T01:47:04;35.67;;;21.90;;
63276;SDS011;49403;51.046;13.780;2024-03-06T01:47:36;36.78;;;21.58;;
63276;SDS011;49403;51.046;13.780;2024-03-06T01:48:07;38.63;;;20.65;;
63276;SDS011;49403;51.046;13.780;2024-03-06T01:48:38;43.80;;;21.63;;
63276;SDS011;49403;51.046;13.780;2024-03-06T01:49:10;40.72;;;21.15;;
63276;SDS011;49403;51.046;13.780;2024-03-06T01:49:45;39.90;;;21.80;;
63276;SDS011;49403;51.046;13.780;2024-03-06T01:50:16;38.47;;;21.25;;
63276;SDS011;49403;51.046;13.780;2024-03-06T01:50:47;35.65;;;20.77;;
63276;SDS011;49403;51.046;13.780;2024-03-06T01:51:19;43.00;;;22.55;;
63276;SDS011;49403;51.046;13.780;2024-03-06T01:51:52;41.88;;;21.92;;
63276;SDS011;49403;51.046;13.780;2024-03-06T01:52:25;40.25;;;22.65;;
63276;SDS011;49403;51.046;13.780;2024-03-06T01:52:57;37.95;;;21.13;;
63276;SDS011;49403;51.046;13.780;2024-03-06T01:53:29;37.65;;;21.92;;
63276;SDS011;49403;51.046;13.780;2024-03-06T01:54:01;37.95;;;21.73;;
63276;SDS011;49403;51.046;13.780;2024-03-06T01:54:34;39.13;;;22.60;;
63276;SDS011;49403;51.046;13.780;2024-03-06T01:55:05;40.03;;;21.50;;
63276;SDS011;49403;51.046;13.780;2024-03-06T01:55:37;42.10;;;22.05;;
63276;SDS011;49403;51.046;13.780;2024-03-06T01:56:09;37.03;;;21.60;;
63276;SDS011;49403;51.046;13.780;2024-03-06T01:56:44;43.05;;;22.67;;
63276;SDS011;49403;51.046;13.780;2024-03-06T01:57:16;40.17;;;21.73;;
63276;SDS011;49403;51.046;13.780;2024-03-06T01:57:48;41.60;;;22.88;;
63276;SDS011;49403;51.046;13.780;2024-03-06T01:58:19;42.13;;;22.35;;
63276;SDS011;49403;51.046;13.780;2024-03-06T01:58:51;37.72;;;21.58;;
63276;SDS011;49403;51.046;13.780;2024-03-06T01:59:22;40.90;;;22.00;;
63276;SDS011;49403;51.046;13.780;2024-03-06T01:59:56;37.30;;;21.38;;
63276;SDS011;49403;51.046;13.780;2024-03-06T02:00:28;37.97;;;21.17;;
63276;SDS011;49403;51.046;13.780;2024-03-06T02:00:59;38.78;;;21.83;;
63276;SDS011;49403;51.046;13.780;2024-03-06T02:01:31;39.03;;;21.73;;
63276;SDS011;49403;51.046;13.780;2024-03-06T02:02:03;40.95;;;21.52;;
63276;SDS011;49403;51.046;13.780;2024-03-06T02:02:35;37.50;;;21.40;;
63276;SDS011;49403;51.046;13.780;2024-03-06T02:03:06;42.72;;;22.30;;
63276;SDS011;49403;51.046;13.780;2024-03-06T02:03:37;39.63;;;22.35;;
63276;SDS011;49403;51.046;13.780;2024-03-06T02:04:08;34.97;;;21.80;;
63276;SDS011;49403;51.046;13.780;2024-03-06T02:04:42;38.35;;;21.60;;
63276;SDS011;49403;51.046;13.780;2024-03-06T02:05:13;39.90;;;22.27;;
63276;SDS011;49403;51.046;13.780;2024-03-06T02:05:44;39.58;;;21.60;;
63276;SDS011;49403;51.046;13.780;2024-03-06T02:06:17;36.08;;;21.48;;
63276;SDS011;49403;51.046;13.780;2024-03-06T02:06:49;39.67;;;21.58;;
63276;SDS011;49403;51.046;13.780;2024-03-06T02:07:20;40.95;;;21.83;;
63276;SDS011;49403;51.046;13.780;2024-03-06T02:07:51;44.15;;;22.88;;
63276;SDS011;49403;51.046;13.780;2024-03-06T02:08:24;40.08;;;21.88;;
63276;SDS011;49403;51.046;13.780;2024-03-06T02:08:55;39.03;;;21.75;;
63276;SDS011;49403;51.046;13.780;2024-03-06T02:09:26;38.83;;;20.70;;
63276;SDS011;49403;51.046;13.780;2024-03-06T02:09:57;37.30;;;21.50;;
63276;SDS011;49403;51.046;13.780;2024-03-06T02:10:28;41.65;;;21.77;;
63276;SDS011;49403;51.046;13.780;2024-03-06T02:10:59;40.38;;;22.15;;
63276;SDS011;49403;51.046;13.780;2024-03-06T02:11:32;40.35;;;21.00;;
63276;SDS011;49403;51.046;13.780;2024-03-06T02:12:04;39.78;;;22.10;;
63276;SDS011;49403;51.046;13.780;2024-03-06T02:12:36;37.80;;;21.35;;
63276;SDS011;49403;51.046;13.780;2024-03-06T02:13:07;40.88;;;21.73;;
63276;SDS011;49403;51.046;13.780;2024-03-06T02:13:39;40.22;;;21.95;;
63276;SDS011;49403;51.046;13.780;2024-03-06T02:14:10;43.22;;;22.80;;
63276;SDS011;49403;51.046;13.780;2024-03-06T02:14:41;40.45;;;23.10;;
63276;SDS011;49403;51.046;13.780;2024-03-06T02:15:13;39.08;;;21.52;;
63276;SDS011;49403;51.046;13.780;2024-03-06T02:15:45;44.08;;;22.42;;
63276;SDS011;49403;51.046;13.780;2024-03-06T02:16:16;38.50;;;21.63;;
63276;SDS011;49403;51.046;13.780;2024-03-06T02:16:46;44.13;;;23.20;;
63276;SDS011;49403;51.046;13.780;2024-03-06T02:17:17;40.15;;;21.65;;
63276;SDS011;49403;51.046;13.780;2024-03-06T02:17:48;41.55;;;22.02;;
63276;SDS011;49403;51.046;13.780;2024-03-06T02:18:19;42.30;;;21.90;;
63276;SDS011;49403;51.046;13.780;2024-03-06T02:18:56;37.13;;;21.23;;
63276;SDS011;49403;51.046;13.780;2024-03-06T02:19:37;40.55;;;21.55;;
63276;SDS011;49403;51.046;13.780;2024-03-06T02:20:09;41.17;;;21.73;;
63276;SDS011;49403;51.046;13.780;2024-03-06T02:20:42;41.45;;;21.48;;
63276;SDS011;49403;51.046;13.780;2024-03-06T02:21:13;36.50;;;21.73;;
63276;SDS011;49403;51.046;13.780;2024-03-06T02:21:44;39.70;;;21.98;;
63276;SDS011;49403;51.046;13.780;2024-03-06T02:22:15;38.05;;;22.17;;
63276;SDS011;49403;51.046;13.780;2024-03-06T02:22:46;46.60;;;22.52;;
63276;SDS011;49403;51.046;13.780;2024-03-06T02:23:17;41.28;;;21.90;;
63276;SDS011;49403;51.046;13.780;2024-03-06T02:23:50;42.83;;;22.38;;
63276;SDS011;49403;51.046;13.780;2024-03-06T02:24:22;37.28;;;21.70;;
63276;SDS011;49403;51.046;13.780;2024-03-06T02:24:53;40.13;;;21.48;;
63276;SDS011;49403;51.046;13.780;2024-03-06T02:25:23;37.38;;;21.70;;
63276;SDS011;49403;51.046;13.780;2024-03-06T02:25:54;40.08;;;22.00;;
63276;SDS011;49403;51.046;13.780;2024-03-06T02:26:25;40.67;;;21.35;;
63276;SDS011;49403;51.046;13.780;2024-03-06T02:26:56;40.88;;;22.77;;
63276;SDS011;49403;51.046;13.780;2024-03-06T02:27:27;43.70;;;22.85;;
63276;SDS011;49403;51.046;13.780;2024-03-06T02:27:58;46.17;;;22.40;;
63276;SDS011;49403;51.046;13.780;2024-03-06T02:28:32;39.70;;;21.75;;
63276;SDS011;49403;51.046;13.780;2024-03-06T02:29:04;43.58;;;22.40;;
63276;SDS011;49403;51.046;13.780;2024-03-06T02:29:36;43.92;;;22.35;;
63276;SDS011;49403;51.046;13.780;2024-03-06T02:30:08;40.08;;;22.17;;
63276;SDS011;49403;51.046;13.780;2024-03-06T02:30:39;38.80;;;21.73;;
63276;SDS011;49403;51.046;13.780;2024-03-06T02:31:10;38.58;;;21.50;;
63276;SDS011;49403;51.046;13.780;2024-03-06T02:31:41;40.90;;;22.55;;
63276;SDS011;49403;51.046;13.780;2024-03-06T02:32:12;40.20;;;21.77;;
63276;SDS011;49403;51.046;13.780;2024-03-06T02:32:48;38.45;;;22.17;;
63276;SDS011;49403;51.046;13.780;2024-03-06T02:33:19;44.22;;;22.85;;
63276;SDS011;49403;51.046;13.780;2024-03-06T02:33:49;38.92;;;22.20;;
63276;SDS011;49403;51.046;13.780;2024-03-06T02:34:20;39.65;;;22.33;;
63276;SDS011;49403;51.046;13.780;2024-03-06T02:34:51;40.63;;;22.83;;
63276;SDS011;49403;51.046;13.780;2024-03-06T02:35:22;37.80;;;21.67;;
63276;SDS011;49403;51.046;13.780;2024-03-06T02:35:53;43.72;;;23.27;;
63276;SDS011;49403;51.046;13.780;2024-03-06T02:36:24;39.35;;;21.85;;
63276;SDS011;49403;51.046;13.780;2024-03-06T02:36:56;41.28;;;22.42;;
63276;SDS011;49403;51.046;13.780;2024-03-06T02:37:27;39.70;;;22.20;;
63276;SDS011;49403;51.046;13.780;2024-03-06T02:38:00;41.33;;;22.73;;
63276;SDS011;49403;51.046;13.780;2024-03-06T02:38:31;43.40;;;22.42;;
63276;SDS011;49403;51.046;13.780;2024-03-06T02:39:03;39.78;;;23.05;;
63276;SDS011;49403;51.046;13.780;2024-03-06T02:39:38;43.65;;;22.77;;
63276;SDS011;49403;51.046;13.780;2024-03-06T02:40:09;44.40;;;22.70;;
63276;SDS011;49403;51.046;13.780;2024-03-06T02:40:42;38.58;;;22.20;;
63276;SDS011;49403;51.046;13.780;2024-03-06T02:41:15;42.08;;;22.42;;
63276;SDS011;49403;51.046;13.780;2024-03-06T02:41:46;40.38;;;22.08;;
63276;SDS011;49403;51.046;13.780;2024-03-06T02:42:17;43.17;;;22.25;;
63276;SDS011;49403;51.046;13.780;2024-03-06T02:42:48;43.17;;;22.52;;
63276;SDS011;49403;51.046;13.780;2024-03-06T02:43:18;45.00;;;22.52;;
63276;SDS011;49403;51.046;13.780;2024-03-06T02:43:49;36.90;;;22.05;;
63276;SDS011;49403;51.046;13.780;2024-03-06T02:44:20;43.08;;;23.50;;
63276;SDS011;49403;51.046;13.780;2024-03-06T02:44:51;44.22;;;22.80;;
63276;SDS011;49403;51.046;13.780;2024-03-06T02:45:22;42.90;;;22.52;;
63276;SDS011;49403;51.046;13.780;2024-03-06T02:45:53;51.88;;;23.10;;
63276;SDS011;49403;51.046;13.780;2024-03-06T02:46:24;41.53;;;22.83;;
63276;SDS011;49403;51.046;13.780;2024-03-06T02:46:55;41.20;;;22.45;;
63276;SDS011;49403;51.046;13.780;2024-03-06T02:47:25;40.30;;;22.60;;
63276;SDS011;49403;51.046;13.780;2024-03-06T02:47:56;43.65;;;23.17;;
63276;SDS011;49403;51.046;13.780;2024-03-06T02:48:27;41.92;;;23.13;;
63276;SDS011;49403;51.046;13.780;2024-03-06T02:48:58;43.78;;;22.63;;
63276;SDS011;49403;51.046;13.780;2024-03-06T02:49:29;41.78;;;23.08;;
63276;SDS011;49403;51.046;13.780;2024-03-06T02:50:00;41.10;;;23.23;;
63276;SDS011;49403;51.046;13.780;2024-03-06T02:50:31;42.25;;;23.17;;
63276;SDS011;49403;51.046;13.780;2024-03-06T02:51:02;40.58;;;22.75;;
63276;SDS011;49403;51.046;13.780;2024-03-06T02:51:33;44.88;;;23.02;;
63276;SDS011;49403;51.046;13.780;2024-03-06T02:52:04;42.67;;;22.80;;
63276;SDS011;49403;51.046;13.780;2024-03-06T02:52:35;42.88;;;23.50;;
63276;SDS011;49403;51.046;13.780;2024-03-06T02:53:06;44.25;;;23.00;;
63276;SDS011;49403;51.046;13.780;2024-03-06T02:53:37;48.33;;;23.42;;
63276;SDS011;49403;51.046;13.780;2024-03-06T02:54:08;39.72;;;22.98;;
63276;SDS011;49403;51.046;13.780;2024-03-06T02:54:40;41.88;;;22.80;;
63276;SDS011;49403;51.046;13.780;2024-03-06T02:55:12;44.92;;;22.02;;
63276;SDS011;49403;51.046;13.780;2024-03-06T02:55:43;45.10;;;23.58;;
63276;SDS011;49403;51.046;13.780;2024-03-06T02:56:19;45.97;;;23.90;;
63276;SDS011;49403;51.046;13.780;2024-03-06T02:56:51;41.13;;;22.83;;
63276;SDS011;49403;51.046;13.780;2024-03-06T02:57:22;39.78;;;23.42;;
63276;SDS011;49403;51.046;13.780;2024-03-06T02:57:53;40.97;;;22.50;;
63276;SDS011;49403;51.046;13.780;2024-03-06T02:58:24;41.55;;;22.20;;
63276;SDS011;49403;51.046;13.780;2024-03-06T02:58:55;40.88;;;23.40;;
63276;SDS011;49403;51.046;13.780;2024-03-06T02:59:25;43.65;;;23.13;;
63276;SDS011;49403;51.046;13.780;2024-03-06T02:59:57;41.38;;;23.25;;
63276;SDS011;49403;51.046;13.780;2024-03-06T03:00:28;41.30;;;21.67;;